Netcong, NJ (07857)

12:39 PM EST on February 11, 2016 (GMT -0500)
KNJNETCO2 | | Change Station
CLOSE
Current Station
Personal Weather Station
Location: Netcong, NJ
Elevation: 919 ft
Nearby Weather Stations

Elev 919 ft 40.90 °N, 74.70 °W | Updated 6 days ago

Cloudy
Cloudy
23 °F
Feels Like 9 °F
N
17
Wind Variable Wind from WNW
Gusts 28 mph

Today
High -- | Low -- °F
--% Chance of Precip.
Yesterday
High -- | Low -- °F
Precip. -- in
Pressure 29.93 in
Visibility 25.0 miles
Clouds Scattered Clouds 4000 ft
Overcast 6000 ft
Windchill 9 °F
Dew Point -3 °F
Humidity 31%
Rainfall in
Snow Depth Not available.
6:58 AM 5:27 PM
Waxing Crescent, 13% visible
METAR KMMU 111645Z 31013G22KT 25SM SCT040 OVC060 M05/M17 A2993
Pressure 29.93 in
Visibility 25.0 miles
Clouds Scattered Clouds 4000 ft
Overcast 6000 ft
Windchill 9 °F
Dew Point -3 °F
Humidity 31%
Rainfall in
Snow Depth Not available.
6:58 AM 5:27 PM
Waxing Crescent, 13% visible
METAR KMMU 111645Z 31013G22KT 25SM SCT040 OVC060 M05/M17 A2993

10-Day Weather Forecast

Almanac

Astronomy

Feb. 11, 2016 Rise Set
Actual Time
Civil Twilight
Nautical Twilight
Astronomical Twilight
Moon
Length of Visible Light
Length of Day
Tomorrow will be .
, % of the Moon is Illuminated

Today's Extremes

State Highs State Lows

Community

WunderPhotos

Upload Photos

1,892,109 photos uploaded!

WunderBlog® & News

Nearby

Air Quality

  Air Quality AQ Index Pollutant
Not available.

Snow Depth

Station Depth Elevation

Earthquake Activity

City Distance Mag. Time & Date
Minimum magnitude displayed is 2.5.

Coastal Water Temperatures

Place Temperature

Stations

Nearby Weather Stations

Station Location Temp. Windchill Dew Point Humidity Wind Precip. Elev Updated Type
                   

Watches & Warnings

There are currently no watches in effect.